Time;durP1;ratioP1;P1;durP2;ratioP2;P2;SDS_P1;SDS_P2;PMS_P1;PMS_P2;Temp;Humidity;BMP_temperature;BMP_pressure;BME280_temperature;BME280_humidity;BME280_pressure;Samples;Min_cycle;Max_cycle;Signal;HPM_P1;HPM_P2
2023/09/24 00:01:06;;;;;;;;;;;;;;;;;;5053611;28;19917;-84
2023/09/24 00:03:32;;;;;;;;;;;;;;;;;;5057465;28;19966;-84
2023/09/24 00:06:02;;;;;;;;;;;;;;;;;;5068845;28;19921;-84
2023/09/24 00:08:28;;;;;;;;;;;;;;;;;;5048026;28;20401;-84
2023/09/24 00:10:53;;;;;;;;;;;;;;;;;;5078925;28;20375;-84
2023/09/24 00:13:19;;;;;;;;;;;;;;;;;;5072577;28;19966;-83
2023/09/24 00:15:44;;;;;;;;;;;;;;;;;;5073631;28;19964;-84
2023/09/24 00:18:10;;;;;;;;;;;;;;;;;;5078522;28;19919;-84
2023/09/24 00:20:35;;;;;;;;;;;;;;;;;;5075552;28;19922;-84
2023/09/24 00:23:01;;;;;;;;;;;;;;;;;;5083476;28;19916;-84
2023/09/24 00:25:28;;;;;;;;;;;;;;;;;;5073944;28;20039;-84
2023/09/24 00:27:54;;;;;;;;;;;;;;;;;;5082956;28;19989;-84
2023/09/24 00:30:20;;;;;;;;;;;;;;;;;;5072579;28;19944;-84
2023/09/24 00:32:45;;;;;;;;;;;;;;;;;;5058318;28;20356;-84
2023/09/24 00:35:10;;;;;;;;;;;;;;;;;;5073507;28;19928;-84
2023/09/24 00:37:36;;;;;;;;;;;;;;;;;;5067017;28;19912;-84
2023/09/24 00:40:06;;;;;;;;;;;;;;;;;;5075357;28;19916;-84
2023/09/24 00:42:32;;;;;;;;;;;;;;;;;;5075247;28;19921;-84
2023/09/24 00:44:58;;;;;;;;;;;;;;;;;;5064903;28;19965;-84
2023/09/24 00:47:23;;;;;;;;;;;;;;;;;;5063329;28;19973;-84
2023/09/24 00:49:50;;;;;;;;;;;;;;;;;;5071765;28;19916;-84
2023/09/24 00:52:15;;;;;;;;;;;;;;;;;;5051398;28;20070;-84
2023/09/24 00:54:40;;;;;;;;;;;;;;;;;;5079927;28;20022;-85
2023/09/24 00:57:06;;;;;;;;;;;;;;;;;;5067951;28;19912;-84
2023/09/24 00:59:31;;;;;;;;;;;;;;;;;;5078810;28;19920;-84
2023/09/24 01:01:57;;;;;;;;;;;;;;;;;;5052199;28;19913;-84
2023/09/24 01:04:22;;;;;;;;;;;;;;;;;;5075705;28;20061;-84
2023/09/24 01:06:48;;;;;;;;;;;;;;;;;;5045568;28;19920;-84
2023/09/24 01:09:16;;;;;;;;;;;;;;;;;;5064505;28;19916;-84
2023/09/24 01:11:41;;;;;;;;;;;;;;;;;;5069487;28;20372;-83
2023/09/24 01:14:06;;;;;;;;;;;;;;;;;;5055476;28;19917;-84
2023/09/24 01:16:37;;;;;;;;;;;;;;;;;;5075275;28;19912;-83
2023/09/24 01:19:29;;;;;;;;;;;;;;;;;;5074443;28;20341;-84
2023/09/24 01:21:55;;;;;;;;;;;;;;;;;;5074558;28;19931;-84
2023/09/24 01:24:21;;;;;;;;;;;;;;;;;;5073930;28;19916;-84
2023/09/24 01:26:46;;;;;;;;;;;;;;;;;;5067429;28;19974;-83
2023/09/24 01:29:14;;;;;;;;;;;;;;;;;;5050193;28;19912;-83
2023/09/24 01:31:39;;;;;;;;;;;;;;;;;;5071083;28;20015;-84
2023/09/24 01:34:05;;;;;;;;;;;;;;;;;;5073253;28;20011;-83
2023/09/24 01:36:32;;;;;;;;;;;;;;;;;;5070730;28;19924;-83
2023/09/24 01:38:58;;;;;;;;;;;;;;;;;;5053496;28;19917;-84
2023/09/24 01:41:25;;;;;;;;;;;;;;;;;;5055452;28;19998;-83
2023/09/24 01:43:50;;;;;;;;;;;;;;;;;;5039234;28;19916;-84
2023/09/24 01:46:16;;;;;;;;;;;;;;;;;;5060647;28;19916;-84
2023/09/24 01:48:43;;;;;;;;;;;;;;;;;;5055108;28;19912;-83
2023/09/24 01:51:10;;;;;;;;;;;;;;;;;;5074280;28;19927;-84
2023/09/24 01:53:38;;;;;;;;;;;;;;;;;;5074492;28;20371;-84
2023/09/24 01:56:04;;;;;;;;;;;;;;;;;;5059606;28;19917;-83
2023/09/24 01:58:29;;;;;;;;;;;;;;;;;;5070994;28;19916;-83
2023/09/24 02:00:55;;;;;;;;;;;;;;;;;;5071286;28;20294;-84
2023/09/24 02:03:20;;;;;;;;;;;;;;;;;;5071076;28;19916;-83
2023/09/24 02:05:46;;;;;;;;;;;;;;;;;;5086073;28;19916;-84
2023/09/24 02:08:11;;;;;;;;;;;;;;;;;;5070699;28;19962;-84
2023/09/24 02:10:40;;;;;;;;;;;;;;;;;;5073431;28;19920;-84
2023/09/24 02:13:06;;;;;;;;;;;;;;;;;;5051618;28;19912;-84
2023/09/24 02:15:32;;;;;;;;;;;;;;;;;;5043139;28;19916;-83
2023/09/24 02:17:58;;;;;;;;;;;;;;;;;;5071868;28;19956;-83
2023/09/24 02:20:25;;;;;;;;;;;;;;;;;;5069240;28;19948;-83
2023/09/24 02:22:50;;;;;;;;;;;;;;;;;;5077131;28;20280;-83
2023/09/24 02:25:16;;;;;;;;;;;;;;;;;;5077710;28;19924;-83
2023/09/24 02:27:42;;;;;;;;;;;;;;;;;;5063950;28;19925;-83
2023/09/24 02:30:07;;;;;;;;;;;;;;;;;;5069803;28;19924;-84
2023/09/24 02:32:32;;;;;;;;;;;;;;;;;;5078032;28;19957;-84
2023/09/24 02:34:58;;;;;;;;;;;;;;;;;;5070903;28;19920;-83
2023/09/24 02:37:27;;;;;;;;;;;;;;;;;;5079954;28;19912;-84
2023/09/24 02:39:53;;;;;;;;;;;;;;;;;;5082804;28;19920;-84
2023/09/24 02:42:18;;;;;;;;;;;;;;;;;;5071057;28;20504;-84
2023/09/24 02:44:43;;;;;;;;;;;;;;;;;;5082446;28;20008;-84
2023/09/24 02:47:08;;;;;;;;;;;;;;;;;;5074312;28;19913;-84
2023/09/24 02:49:34;;;;;;;;;;;;;;;;;;5078060;28;20367;-85
2023/09/24 02:52:00;;;;;;;;;;;;;;;;;;5059029;28;20445;-84
2023/09/24 02:54:25;;;;;;;;;;;;;;;;;;5073578;28;19963;-84
2023/09/24 02:56:52;;;;;;;;;;;;;;;;;;5081546;28;19916;-84
2023/09/24 02:59:18;;;;;;;;;;;;;;;;;;5080102;28;20022;-85
2023/09/24 03:01:48;;;;;;;;;;;;;;;;;;5080550;28;19963;-84
2023/09/24 03:04:15;;;;;;;;;;;;;;;;;;5060230;28;20302;-85
2023/09/24 03:06:41;;;;;;;;;;;;;;;;;;5072606;28;19912;-84
2023/09/24 03:09:10;;;;;;;;;;;;;;;;;;5054858;28;19916;-85
2023/09/24 03:11:35;;;;;;;;;;;;;;;;;;5060869;28;19955;-84
2023/09/24 03:14:01;;;;;;;;;;;;;;;;;;5043765;28;20338;-84
2023/09/24 03:16:28;;;;;;;;;;;;;;;;;;5072470;28;20062;-84
2023/09/24 03:18:53;;;;;;;;;;;;;;;;;;5058174;28;19920;-84
2023/09/24 03:21:18;;;;;;;;;;;;;;;;;;5054296;28;20438;-84
2023/09/24 03:23:44;;;;;;;;;;;;;;;;;;5072264;28;19967;-84
2023/09/24 03:26:14;;;;;;;;;;;;;;;;;;5056312;28;19912;-83
2023/09/24 03:28:40;;;;;;;;;;;;;;;;;;5039845;28;19928;-85
2023/09/24 03:31:05;;;;;;;;;;;;;;;;;;5072348;28;20298;-84
2023/09/24 03:33:31;;;;;;;;;;;;;;;;;;5074812;28;20003;-84
2023/09/24 03:35:56;;;;;;;;;;;;;;;;;;5072885;28;19912;-84
2023/09/24 03:38:22;;;;;;;;;;;;;;;;;;5072644;28;19920;-84
2023/09/24 03:40:48;;;;;;;;;;;;;;;;;;5072691;28;20011;-84
2023/09/24 03:43:14;;;;;;;;;;;;;;;;;;5057076;28;20002;-84
2023/09/24 03:45:39;;;;;;;;;;;;;;;;;;5055724;28;20552;-84
2023/09/24 03:48:05;;;;;;;;;;;;;;;;;;5059480;28;20008;-83
2023/09/24 03:50:30;;;;;;;;;;;;;;;;;;5073568;28;19921;-84
2023/09/24 03:52:56;;;;;;;;;;;;;;;;;;5068139;28;19967;-84
2023/09/24 03:55:22;;;;;;;;;;;;;;;;;;5074680;28;19920;-85
2023/09/24 03:57:47;;;;;;;;;;;;;;;;;;5041733;28;19921;-84
2023/09/24 04:00:16;;;;;;;;;;;;;;;;;;5049676;28;19919;-84
2023/09/24 04:02:43;;;;;;;;;;;;;;;;;;5042481;28;19974;-83
2023/09/24 04:05:09;;;;;;;;;;;;;;;;;;5046904;28;20539;-84
2023/09/24 04:07:37;;;;;;;;;;;;;;;;;;5074301;28;19916;-84
2023/09/24 04:10:02;;;;;;;;;;;;;;;;;;5082939;28;19965;-83
2023/09/24 04:12:27;;;;;;;;;;;;;;;;;;5073676;28;19998;-85
2023/09/24 04:14:53;;;;;;;;;;;;;;;;;;5091209;28;19917;-85
2023/09/24 04:17:19;;;;;;;;;;;;;;;;;;5081560;28;19939;-85
2023/09/24 04:19:45;;;;;;;;;;;;;;;;;;5076040;28;19963;-85
2023/09/24 04:22:10;;;;;;;;;;;;;;;;;;5072744;28;19916;-85
2023/09/24 04:24:36;;;;;;;;;;;;;;;;;;5066789;28;20015;-85
2023/09/24 04:27:01;;;;;;;;;;;;;;;;;;5075566;28;19929;-85
2023/09/24 04:29:26;;;;;;;;;;;;;;;;;;5082882;28;20014;-85
2023/09/24 04:31:52;;;;;;;;;;;;;;;;;;5046920;28;19921;-85
2023/09/24 04:34:19;;;;;;;;;;;;;;;;;;5083629;28;19919;-84
2023/09/24 04:36:44;;;;;;;;;;;;;;;;;;5080437;28;19916;-84
2023/09/24 04:39:10;;;;;;;;;;;;;;;;;;5082417;28;19917;-84
2023/09/24 04:41:37;;;;;;;;;;;;;;;;;;5064998;28;20367;-83
2023/09/24 04:44:02;;;;;;;;;;;;;;;;;;5081126;28;19927;-84
2023/09/24 04:46:27;;;;;;;;;;;;;;;;;;5080484;28;19916;-85
2023/09/24 04:48:53;;;;;;;;;;;;;;;;;;5060515;28;19925;-85
2023/09/24 04:51:18;;;;;;;;;;;;;;;;;;5074081;28;19920;-84
2023/09/24 04:53:43;;;;;;;;;;;;;;;;;;5080598;28;20375;-85
2023/09/24 04:56:09;;;;;;;;;;;;;;;;;;5081329;28;20011;-84
2023/09/24 04:58:38;;;;;;;;;;;;;;;;;;5080731;28;19916;-84
2023/09/24 05:01:03;;;;;;;;;;;;;;;;;;5064537;28;19916;-85
2023/09/24 05:03:28;;;;;;;;;;;;;;;;;;5074381;28;19919;-84
2023/09/24 05:05:54;;;;;;;;;;;;;;;;;;5082142;28;19917;-84
2023/09/24 05:08:19;;;;;;;;;;;;;;;;;;5079525;28;20015;-84
2023/09/24 05:10:45;;;;;;;;;;;;;;;;;;5082730;28;19920;-83
2023/09/24 05:13:11;;;;;;;;;;;;;;;;;;5074355;28;19916;-83
2023/09/24 05:15:36;;;;;;;;;;;;;;;;;;5083538;28;19948;-84
2023/09/24 05:18:02;;;;;;;;;;;;;;;;;;5066244;28;20413;-83
2023/09/24 05:20:27;;;;;;;;;;;;;;;;;;5089114;28;19939;-83
2023/09/24 05:22:52;;;;;;;;;;;;;;;;;;5070110;28;20397;-83
2023/09/24 05:25:19;;;;;;;;;;;;;;;;;;5058766;28;19923;-85
2023/09/24 05:27:45;;;;;;;;;;;;;;;;;;5087620;28;19951;-85
2023/09/24 05:30:10;;;;;;;;;;;;;;;;;;5067013;28;19924;-85
2023/09/24 05:32:35;;;;;;;;;;;;;;;;;;5066812;28;19913;-85
2023/09/24 05:35:01;;;;;;;;;;;;;;;;;;5054761;28;19920;-85
2023/09/24 05:37:26;;;;;;;;;;;;;;;;;;5087236;28;20406;-85
2023/09/24 05:39:51;;;;;;;;;;;;;;;;;;5091069;28;19920;-84
2023/09/24 05:42:17;;;;;;;;;;;;;;;;;;5086893;28;19958;-84
2023/09/24 05:44:43;;;;;;;;;;;;;;;;;;5063681;28;19924;-84
2023/09/24 05:47:08;;;;;;;;;;;;;;;;;;5077726;28;20295;-85
2023/09/24 05:49:33;;;;;;;;;;;;;;;;;;5047386;28;19916;-84
2023/09/24 05:51:59;;;;;;;;;;;;;;;;;;5074743;28;19916;-85
2023/09/24 05:54:24;;;;;;;;;;;;;;;;;;5073970;28;19923;-84
2023/09/24 05:56:49;;;;;;;;;;;;;;;;;;5073973;28;20003;-84
2023/09/24 05:59:15;;;;;;;;;;;;;;;;;;5072851;28;20311;-84
2023/09/24 06:01:42;;;;;;;;;;;;;;;;;;5073661;28;19923;-85
2023/09/24 06:04:07;;;;;;;;;;;;;;;;;;5069667;28;19923;-85
2023/09/24 06:06:33;;;;;;;;;;;;;;;;;;5073348;28;20379;-84
2023/09/24 06:08:58;;;;;;;;;;;;;;;;;;5069380;28;19916;-84
2023/09/24 06:11:23;;;;;;;;;;;;;;;;;;5053999;28;19912;-84
2023/09/24 06:13:49;;;;;;;;;;;;;;;;;;5073615;28;20267;-84
2023/09/24 06:16:14;;;;;;;;;;;;;;;;;;5063898;28;20434;-84
2023/09/24 06:18:40;;;;;;;;;;;;;;;;;;5056070;28;20410;-84
2023/09/24 06:21:05;;;;;;;;;;;;;;;;;;5073042;28;19913;-84
2023/09/24 06:23:30;;;;;;;;;;;;;;;;;;5066493;28;20390;-84
2023/09/24 06:25:56;;;;;;;;;;;;;;;;;;5073385;28;19935;-84
2023/09/24 06:28:21;;;;;;;;;;;;;;;;;;5074769;28;20010;-84
2023/09/24 06:30:46;;;;;;;;;;;;;;;;;;5065393;28;19954;-84
2023/09/24 06:33:36;;;;;;;;;;;;;;;;;;5075108;28;19931;-85
2023/09/24 06:36:02;;;;;;;;;;;;;;;;;;5078327;28;20383;-85
2023/09/24 06:38:27;;;;;;;;;;;;;;;;;;5081474;28;19916;-86
2023/09/24 06:40:52;;;;;;;;;;;;;;;;;;5078196;28;20295;-84
2023/09/24 06:43:17;;;;;;;;;;;;;;;;;;5081362;28;19920;-83
2023/09/24 06:45:43;;;;;;;;;;;;;;;;;;5065232;28;19920;-85
2023/09/24 06:48:08;;;;;;;;;;;;;;;;;;5059455;28;19919;-84
2023/09/24 06:50:34;;;;;;;;;;;;;;;;;;5075098;28;19920;-83
2023/09/24 06:52:59;;;;;;;;;;;;;;;;;;5066975;28;19912;-83
2023/09/24 06:55:25;;;;;;;;;;;;;;;;;;5073786;28;19931;-84
2023/09/24 06:57:50;;;;;;;;;;;;;;;;;;5073938;28;19916;-84
2023/09/24 07:00:16;;;;;;;;;;;;;;;;;;5075828;28;19922;-84
2023/09/24 07:02:41;;;;;;;;;;;;;;;;;;5074310;28;19913;-84
2023/09/24 07:05:08;;;;;;;;;;;;;;;;;;5075000;28;19965;-84
2023/09/24 07:07:33;;;;;;;;;;;;;;;;;;5066094;28;19916;-85
2023/09/24 07:09:59;;;;;;;;;;;;;;;;;;5066756;28;19938;-85
2023/09/24 07:12:25;;;;;;;;;;;;;;;;;;5073623;28;19913;-84
2023/09/24 07:14:50;;;;;;;;;;;;;;;;;;5075326;28;19973;-84
2023/09/24 07:17:15;;;;;;;;;;;;;;;;;;5069544;28;20298;-84
2023/09/24 07:19:41;;;;;;;;;;;;;;;;;;5072318;28;20094;-84
2023/09/24 07:22:06;;;;;;;;;;;;;;;;;;5072676;28;19913;-84
2023/09/24 07:24:31;;;;;;;;;;;;;;;;;;5065703;28;20437;-85
2023/09/24 07:27:02;;;;;;;;;;;;;;;;;;5072115;28;19924;-84
2023/09/24 07:29:27;;;;;;;;;;;;;;;;;;5059122;28;19924;-84
2023/09/24 07:31:54;;;;;;;;;;;;;;;;;;5071735;28;19913;-86
2023/09/24 07:34:19;;;;;;;;;;;;;;;;;;5063996;28;19940;-86
2023/09/24 07:36:44;;;;;;;;;;;;;;;;;;5069949;28;19917;-84
2023/09/24 07:39:10;;;;;;;;;;;;;;;;;;5064530;28;19989;-84
2023/09/24 07:41:35;;;;;;;;;;;;;;;;;;5077311;28;19919;-85
2023/09/24 07:44:00;;;;;;;;;;;;;;;;;;5075219;28;19935;-85
2023/09/24 07:46:26;;;;;;;;;;;;;;;;;;5074765;28;19958;-86
2023/09/24 07:48:51;;;;;;;;;;;;;;;;;;5063923;28;19923;-86
2023/09/24 07:51:17;;;;;;;;;;;;;;;;;;5071088;28;20018;-85
2023/09/24 07:53:42;;;;;;;;;;;;;;;;;;5069175;28;20387;-84
2023/09/24 07:56:09;;;;;;;;;;;;;;;;;;5053306;28;19919;-84
2023/09/24 07:58:34;;;;;;;;;;;;;;;;;;5063211;28;19970;-84
2023/09/24 08:00:59;;;;;;;;;;;;;;;;;;5066831;28;19913;-84
2023/09/24 08:03:25;;;;;;;;;;;;;;;;;;5067522;28;20383;-84
2023/09/24 08:05:51;;;;;;;;;;;;;;;;;;5071847;28;19931;-85
2023/09/24 08:08:16;;;;;;;;;;;;;;;;;;5068871;28;19923;-85
2023/09/24 08:10:41;;;;;;;;;;;;;;;;;;5072387;28;19919;-85
2023/09/24 08:13:07;;;;;;;;;;;;;;;;;;5073339;28;19917;-85
2023/09/24 08:15:32;;;;;;;;;;;;;;;;;;5072878;28;20360;-85
2023/09/24 08:17:58;;;;;;;;;;;;;;;;;;5072949;28;19931;-85
2023/09/24 08:20:23;;;;;;;;;;;;;;;;;;5065231;28;19912;-85
2023/09/24 08:22:48;;;;;;;;;;;;;;;;;;5074095;28;20308;-85
2023/09/24 08:25:14;;;;;;;;;;;;;;;;;;5072286;28;19954;-84
2023/09/24 08:27:39;;;;;;;;;;;;;;;;;;5059742;28;19925;-85
2023/09/24 08:30:04;;;;;;;;;;;;;;;;;;5060669;28;19913;-85
2023/09/24 08:32:30;;;;;;;;;;;;;;;;;;5071396;28;19920;-84
2023/09/24 08:34:56;;;;;;;;;;;;;;;;;;5062042;28;19913;-86
2023/09/24 08:37:21;;;;;;;;;;;;;;;;;;5070972;28;19960;-85
2023/09/24 08:39:46;;;;;;;;;;;;;;;;;;5077237;28;20018;-85
2023/09/24 08:42:12;;;;;;;;;;;;;;;;;;5071353;28;19965;-85
2023/09/24 08:44:37;;;;;;;;;;;;;;;;;;5080375;28;20367;-84
2023/09/24 08:47:02;;;;;;;;;;;;;;;;;;5075703;28;19916;-85
2023/09/24 08:49:28;;;;;;;;;;;;;;;;;;5076396;28;19912;-85
2023/09/24 08:51:54;;;;;;;;;;;;;;;;;;5075044;28;20371;-84
2023/09/24 08:54:20;;;;;;;;;;;;;;;;;;5071032;28;19912;-84
2023/09/24 08:56:46;;;;;;;;;;;;;;;;;;5073096;28;20011;-85
2023/09/24 08:59:11;;;;;;;;;;;;;;;;;;5074573;28;19921;-85
2023/09/24 09:01:37;;;;;;;;;;;;;;;;;;5071717;28;20295;-85
2023/09/24 09:04:02;;;;;;;;;;;;;;;;;;5080962;28;19912;-86
2023/09/24 09:06:27;;;;;;;;;;;;;;;;;;5083121;28;19916;-84
2023/09/24 09:08:53;;;;;;;;;;;;;;;;;;5073151;28;19912;-84
2023/09/24 09:11:19;;;;;;;;;;;;;;;;;;5086626;28;19916;-85
2023/09/24 09:13:45;;;;;;;;;;;;;;;;;;5080380;28;19917;-86
2023/09/24 09:16:11;;;;;;;;;;;;;;;;;;5078295;28;20015;-85
2023/09/24 09:18:36;;;;;;;;;;;;;;;;;;5082626;28;20361;-86
2023/09/24 09:21:02;;;;;;;;;;;;;;;;;;5078420;28;19916;-86
2023/09/24 09:23:27;;;;;;;;;;;;;;;;;;5083991;28;19912;-84
2023/09/24 09:25:53;;;;;;;;;;;;;;;;;;5079276;28;19971;-86
2023/09/24 09:28:18;;;;;;;;;;;;;;;;;;5074379;28;19931;-84
2023/09/24 09:30:43;;;;;;;;;;;;;;;;;;5071705;28;19923;-85
2023/09/24 09:33:09;;;;;;;;;;;;;;;;;;5083475;28;19934;-85
2023/09/24 09:35:36;;;;;;;;;;;;;;;;;;5071772;28;19969;-86
2023/09/24 09:38:01;;;;;;;;;;;;;;;;;;5084437;28;19920;-86
2023/09/24 09:40:26;;;;;;;;;;;;;;;;;;5071876;28;19923;-86
2023/09/24 09:42:52;;;;;;;;;;;;;;;;;;5084171;28;19912;-85
2023/09/24 09:45:17;;;;;;;;;;;;;;;;;;5064670;28;19916;-86
2023/09/24 09:47:42;;;;;;;;;;;;;;;;;;5075036;28;19943;-86
2023/09/24 09:50:08;;;;;;;;;;;;;;;;;;5065804;28;20484;-86
2023/09/24 09:52:34;;;;;;;;;;;;;;;;;;5067174;28;19919;-86
2023/09/24 09:54:59;;;;;;;;;;;;;;;;;;5079640;28;20295;-86
2023/09/24 09:57:25;;;;;;;;;;;;;;;;;;5079838;28;19917;-86
2023/09/24 09:59:50;;;;;;;;;;;;;;;;;;5081034;28;19947;-86
2023/09/24 10:02:16;;;;;;;;;;;;;;;;;;5080141;28;19917;-85
2023/09/24 10:04:41;;;;;;;;;;;;;;;;;;5078937;28;19923;-85
2023/09/24 10:07:07;;;;;;;;;;;;;;;;;;5079935;28;19962;-86
2023/09/24 10:09:34;;;;;;;;;;;;;;;;;;5069455;28;19943;-85
2023/09/24 10:12:00;;;;;;;;;;;;;;;;;;5063029;28;19920;-85
2023/09/24 10:14:26;;;;;;;;;;;;;;;;;;5085492;28;19961;-85
2023/09/24 10:16:51;;;;;;;;;;;;;;;;;;5073726;28;20027;-84
2023/09/24 10:19:16;;;;;;;;;;;;;;;;;;5073331;28;20316;-86
2023/09/24 10:21:45;;;;;;;;;;;;;;;;;;5072725;28;19912;-86
2023/09/24 10:24:10;;;;;;;;;;;;;;;;;;5072695;28;19923;-86
2023/09/24 10:26:35;;;;;;;;;;;;;;;;;;5073813;28;19920;-86
2023/09/24 10:29:03;;;;;;;;;;;;;;;;;;5064391;28;19939;-86
2023/09/24 10:31:28;;;;;;;;;;;;;;;;;;5061890;28;19927;-86
2023/09/24 10:33:54;;;;;;;;;;;;;;;;;;5076346;28;19916;-86
2023/09/24 10:36:27;;;;;;;;;;;;;;;;;;5074068;28;19912;-86
2023/09/24 10:38:52;;;;;;;;;;;;;;;;;;5074607;28;19927;-87
2023/09/24 10:41:18;;;;;;;;;;;;;;;;;;5061176;28;19912;-86
2023/09/24 10:43:43;;;;;;;;;;;;;;;;;;5077203;28;19939;-87
2023/09/24 10:46:08;;;;;;;;;;;;;;;;;;5075835;28;19913;-86
2023/09/24 10:49:00;;;;;;;;;;;;;;;;;;5073744;28;19927;-87
2023/09/24 10:51:25;;;;;;;;;;;;;;;;;;5060537;28;19920;-87
2023/09/24 10:53:51;;;;;;;;;;;;;;;;;;5072555;28;20002;-87
2023/09/24 10:56:16;;;;;;;;;;;;;;;;;;5074074;28;19938;-87
2023/09/24 10:58:41;;;;;;;;;;;;;;;;;;5072152;28;19916;-85
2023/09/24 11:01:07;;;;;;;;;;;;;;;;;;5081956;28;20321;-87
2023/09/24 11:03:32;;;;;;;;;;;;;;;;;;5080912;28;19919;-86
2023/09/24 11:05:58;;;;;;;;;;;;;;;;;;5049158;28;19920;-86
2023/09/24 11:08:23;;;;;;;;;;;;;;;;;;5071345;28;20019;-87
2023/09/24 11:10:49;;;;;;;;;;;;;;;;;;5056796;28;20394;-87
2023/09/24 11:13:15;;;;;;;;;;;;;;;;;;5077718;28;19916;-85
2023/09/24 11:15:41;;;;;;;;;;;;;;;;;;5075242;28;19924;-86
2023/09/24 11:18:07;;;;;;;;;;;;;;;;;;5077137;28;19973;-87
2023/09/24 11:20:34;;;;;;;;;;;;;;;;;;5077703;28;19916;-86
2023/09/24 11:23:00;;;;;;;;;;;;;;;;;;5073149;28;19912;-86
2023/09/24 11:25:25;;;;;;;;;;;;;;;;;;5078232;28;19916;-86
2023/09/24 11:27:50;;;;;;;;;;;;;;;;;;5079150;28;19928;-86
2023/09/24 11:30:16;;;;;;;;;;;;;;;;;;5082900;28;20073;-87
2023/09/24 11:32:41;;;;;;;;;;;;;;;;;;5073361;28;19959;-86
2023/09/24 11:35:06;;;;;;;;;;;;;;;;;;5070931;28;19916;-86
2023/09/24 11:37:32;;;;;;;;;;;;;;;;;;5082927;28;19916;-86
2023/09/24 11:39:57;;;;;;;;;;;;;;;;;;5082771;28;19943;-87
2023/09/24 11:42:22;;;;;;;;;;;;;;;;;;5082304;28;21101;-87
2023/09/24 11:44:48;;;;;;;;;;;;;;;;;;5072979;28;19955;-87
2023/09/24 11:47:13;;;;;;;;;;;;;;;;;;5060775;28;19912;-87
2023/09/24 11:49:38;;;;;;;;;;;;;;;;;;5087010;28;19917;-87
2023/09/24 11:52:03;;;;;;;;;;;;;;;;;;5074006;28;19974;-87
2023/09/24 11:54:29;;;;;;;;;;;;;;;;;;5074967;28;19920;-87
2023/09/24 11:56:54;;;;;;;;;;;;;;;;;;5075938;28;20004;-88
2023/09/24 11:59:20;;;;;;;;;;;;;;;;;;5072681;28;19924;-89
2023/09/24 12:01:45;;;;;;;;;;;;;;;;;;5073729;28;19912;-87
2023/09/24 12:04:10;;;;;;;;;;;;;;;;;;5074415;28;19983;-88
2023/09/24 12:06:36;;;;;;;;;;;;;;;;;;5058349;28;19913;-88
2023/09/24 12:09:01;;;;;;;;;;;;;;;;;;5075551;28;19916;-89
2023/09/24 12:11:27;;;;;;;;;;;;;;;;;;5075455;28;19912;-87
2023/09/24 12:13:55;;;;;;;;;;;;;;;;;;5070395;28;20355;-86
2023/09/24 12:16:21;;;;;;;;;;;;;;;;;;5072862;28;19952;-85
2023/09/24 12:18:46;;;;;;;;;;;;;;;;;;5080296;28;20351;-88
2023/09/24 12:21:12;;;;;;;;;;;;;;;;;;5079566;28;19963;-87
2023/09/24 12:23:37;;;;;;;;;;;;;;;;;;5060422;28;19923;-87
2023/09/24 12:26:02;;;;;;;;;;;;;;;;;;5064370;28;19916;-87
2023/09/24 12:28:28;;;;;;;;;;;;;;;;;;5082661;28;19925;-86
2023/09/24 12:30:53;;;;;;;;;;;;;;;;;;5064049;28;20402;-86
2023/09/24 12:33:18;;;;;;;;;;;;;;;;;;5084759;28;19951;-86
2023/09/24 12:35:44;;;;;;;;;;;;;;;;;;5078680;28;19970;-86
2023/09/24 12:38:09;;;;;;;;;;;;;;;;;;5062975;28;19927;-86
2023/09/24 12:40:34;;;;;;;;;;;;;;;;;;5062047;28;19919;-88
2023/09/24 12:43:00;;;;;;;;;;;;;;;;;;5081562;28;19938;-86
2023/09/24 12:45:25;;;;;;;;;;;;;;;;;;5079129;28;19913;-87
2023/09/24 12:47:50;;;;;;;;;;;;;;;;;;5062539;28;19916;-86
2023/09/24 12:50:16;;;;;;;;;;;;;;;;;;5079805;28;19955;-87
2023/09/24 12:52:41;;;;;;;;;;;;;;;;;;5074588;28;19916;-86
2023/09/24 12:55:07;;;;;;;;;;;;;;;;;;5080024;28;19999;-86
2023/09/24 12:57:33;;;;;;;;;;;;;;;;;;5068258;28;19922;-86
2023/09/24 12:59:58;;;;;;;;;;;;;;;;;;5085561;28;19920;-87
2023/09/24 13:02:23;;;;;;;;;;;;;;;;;;5081097;28;19916;-86
2023/09/24 13:04:49;;;;;;;;;;;;;;;;;;5081463;28;20314;-87
2023/09/24 13:07:14;;;;;;;;;;;;;;;;;;5086330;28;19923;-86
2023/09/24 13:09:40;;;;;;;;;;;;;;;;;;5072861;28;19919;-86
2023/09/24 13:12:05;;;;;;;;;;;;;;;;;;5081050;28;20268;-85
2023/09/24 13:14:31;;;;;;;;;;;;;;;;;;5068255;28;19919;-86
2023/09/24 13:16:56;;;;;;;;;;;;;;;;;;5088339;28;19921;-86
2023/09/24 13:19:21;;;;;;;;;;;;;;;;;;5066964;28;19979;-87
2023/09/24 13:21:47;;;;;;;;;;;;;;;;;;5068265;28;19971;-85
2023/09/24 13:24:13;;;;;;;;;;;;;;;;;;5083008;28;20690;-85
2023/09/24 13:26:43;;;;;;;;;;;;;;;;;;5049142;28;19924;-87
2023/09/24 13:29:08;;;;;;;;;;;;;;;;;;5060267;28;19924;-87
2023/09/24 13:31:33;;;;;;;;;;;;;;;;;;5067584;28;19916;-87
2023/09/24 13:34:05;;;;;;;;;;;;;;;;;;5083691;28;20450;-87
2023/09/24 13:36:30;;;;;;;;;;;;;;;;;;5066100;28;19923;-87
2023/09/24 13:38:56;;;;;;;;;;;;;;;;;;5085740;28;19916;-86
2023/09/24 13:41:21;;;;;;;;;;;;;;;;;;5072782;28;19916;-87
2023/09/24 13:43:46;;;;;;;;;;;;;;;;;;5086254;28;20007;-86
2023/09/24 13:46:12;;;;;;;;;;;;;;;;;;5065492;28;20300;-86
2023/09/24 13:48:37;;;;;;;;;;;;;;;;;;5066394;28;19916;-76
2023/09/24 13:51:03;;;;;;;;;;;;;;;;;;5073126;28;19920;-79
2023/09/24 13:53:28;;;;;;;;;;;;;;;;;;5072485;28;19913;-80
2023/09/24 13:55:54;;;;;;;;;;;;;;;;;;5084579;28;20303;-78
2023/09/24 13:58:19;;;;;;;;;;;;;;;;;;5071797;28;20393;-76
2023/09/24 14:00:51;;;;;;;;;;;;;;;;;;5072752;28;19943;-79
2023/09/24 14:03:17;;;;;;;;;;;;;;;;;;5074408;28;19924;-79
2023/09/24 14:05:42;;;;;;;;;;;;;;;;;;5067142;28;19967;-76
2023/09/24 14:13:35;;;;;;;;;;;;;;;;;;5067451;28;19917;-78
2023/09/24 14:16:01;;;;;;;;;;;;;;;;;;5072549;28;19917;-78
2023/09/24 14:18:26;;;;;;;;;;;;;;;;;;5074670;28;19924;-78
2023/09/24 14:20:51;;;;;;;;;;;;;;;;;;5069175;28;20022;-78
2023/09/24 14:23:17;;;;;;;;;;;;;;;;;;5075365;28;19920;-78
2023/09/24 14:25:43;;;;;;;;;;;;;;;;;;5071990;28;19962;-78
2023/09/24 14:28:09;;;;;;;;;;;;;;;;;;5068222;28;19973;-78
2023/09/24 14:30:36;;;;;;;;;;;;;;;;;;5073733;28;20380;-78
2023/09/24 14:33:02;;;;;;;;;;;;;;;;;;5068143;28;19920;-79
2023/09/24 14:35:27;;;;;;;;;;;;;;;;;;5052762;28;20406;-78
2023/09/24 14:37:52;;;;;;;;;;;;;;;;;;5074755;28;20397;-78
2023/09/24 14:40:18;;;;;;;;;;;;;;;;;;5073636;28;19919;-79
2023/09/24 14:42:43;;;;;;;;;;;;;;;;;;5075284;28;19916;-78
2023/09/24 14:45:08;;;;;;;;;;;;;;;;;;5073840;28;19912;-79
2023/09/24 14:47:35;;;;;;;;;;;;;;;;;;5073574;28;19931;-77
2023/09/24 14:50:00;;;;;;;;;;;;;;;;;;5071788;28;20397;-76
2023/09/24 14:52:26;;;;;;;;;;;;;;;;;;5071990;28;19916;-76
2023/09/24 14:54:51;;;;;;;;;;;;;;;;;;5072960;28;20668;-76
2023/09/24 14:57:19;;;;;;;;;;;;;;;;;;5072396;28;19916;-77
2023/09/24 14:59:44;;;;;;;;;;;;;;;;;;5072149;28;19916;-76
2023/09/24 15:02:09;;;;;;;;;;;;;;;;;;5072836;28;19917;-76
2023/09/24 15:04:36;;;;;;;;;;;;;;;;;;5072242;28;19916;-77
2023/09/24 15:07:01;;;;;;;;;;;;;;;;;;5074121;28;20325;-77
2023/09/24 15:09:27;;;;;;;;;;;;;;;;;;5070501;28;20101;-77
2023/09/24 15:11:52;;;;;;;;;;;;;;;;;;5071877;28;19924;-77
2023/09/24 15:14:19;;;;;;;;;;;;;;;;;;5072277;28;19912;-76
2023/09/24 15:16:45;;;;;;;;;;;;;;;;;;5073670;28;19927;-76
2023/09/24 15:19:10;;;;;;;;;;;;;;;;;;5072249;28;20279;-77
2023/09/24 15:21:35;;;;;;;;;;;;;;;;;;5073837;28;19939;-77
2023/09/24 15:24:01;;;;;;;;;;;;;;;;;;5073186;28;19939;-78
2023/09/24 15:26:26;;;;;;;;;;;;;;;;;;5073751;28;19952;-79
2023/09/24 15:28:51;;;;;;;;;;;;;;;;;;5073048;28;19934;-78
2023/09/24 15:31:18;;;;;;;;;;;;;;;;;;5064656;28;19923;-78
2023/09/24 15:33:44;;;;;;;;;;;;;;;;;;5072573;28;20003;-78
2023/09/24 15:36:10;;;;;;;;;;;;;;;;;;5074921;28;20078;-78
2023/09/24 15:38:36;;;;;;;;;;;;;;;;;;5067907;28;19916;-78
2023/09/24 15:41:01;;;;;;;;;;;;;;;;;;5067496;28;19928;-77
2023/09/24 15:43:27;;;;;;;;;;;;;;;;;;5072623;28;20372;-78
2023/09/24 15:45:52;;;;;;;;;;;;;;;;;;5074407;28;19917;-77
2023/09/24 15:48:17;;;;;;;;;;;;;;;;;;5074349;28;19913;-78
2023/09/24 15:50:43;;;;;;;;;;;;;;;;;;5068404;28;19924;-78
2023/09/24 15:53:08;;;;;;;;;;;;;;;;;;5063447;28;19966;-78
2023/09/24 15:55:34;;;;;;;;;;;;;;;;;;5070929;28;19967;-77
2023/09/24 15:57:59;;;;;;;;;;;;;;;;;;5071779;28;19913;-77
2023/09/24 16:00:24;;;;;;;;;;;;;;;;;;5072441;28;19963;-78
2023/09/24 16:02:50;;;;;;;;;;;;;;;;;;5072131;28;19920;-78
2023/09/24 16:05:16;;;;;;;;;;;;;;;;;;5072829;28;19917;-78
2023/09/24 16:07:41;;;;;;;;;;;;;;;;;;5073550;28;19920;-78
2023/09/24 16:10:07;;;;;;;;;;;;;;;;;;5071376;28;19916;-78
2023/09/24 16:12:33;;;;;;;;;;;;;;;;;;5066407;28;20338;-78
2023/09/24 16:14:58;;;;;;;;;;;;;;;;;;5072553;28;19917;-78
2023/09/24 16:17:23;;;;;;;;;;;;;;;;;;5073585;28;19962;-78
2023/09/24 16:19:49;;;;;;;;;;;;;;;;;;5071945;28;19927;-77
2023/09/24 16:22:14;;;;;;;;;;;;;;;;;;5057977;28;20387;-75
2023/09/24 16:24:40;;;;;;;;;;;;;;;;;;5073272;28;19917;-77
2023/09/24 16:27:05;;;;;;;;;;;;;;;;;;5070346;28;19925;-77
2023/09/24 16:29:30;;;;;;;;;;;;;;;;;;5073700;28;19920;-77
2023/09/24 16:31:56;;;;;;;;;;;;;;;;;;5075394;28;19934;-77
2023/09/24 16:34:21;;;;;;;;;;;;;;;;;;5057871;28;19923;-77
2023/09/24 16:36:49;;;;;;;;;;;;;;;;;;5075248;28;19919;-78
2023/09/24 16:39:14;;;;;;;;;;;;;;;;;;5064655;28;19931;-78
2023/09/24 16:41:40;;;;;;;;;;;;;;;;;;5081542;28;19916;-77